Map

Track Data

SID SEASON NUMBER BASIN SUBBASIN NAME ISO_TIME NATURE LAT LON WMO_WIND WMO_PRES WMO_AGENCY TRACK_TYPE DIST2LAND LANDFALL IFLAG USA_AGENCY USA_ATCF_ID USA_LAT USA_LON USA_RECORD USA_STATUS USA_WIND USA_PRES USA_SSHS USA_R34_NE USA_R34_SE USA_R34_SW USA_R34_NW USA_R50_NE USA_R50_SE USA_R50_SW USA_R50_NW USA_R64_NE USA_R64_SE USA_R64_SW USA_R64_NW USA_POCI USA_ROCI USA_RMW USA_EYE TOKYO_LAT TOKYO_LON TOKYO_GRADE TOKYO_WIND TOKYO_PRES TOKYO_R50_DIR TOKYO_R50_LONG TOKYO_R50_SHORT TOKYO_R30_DIR TOKYO_R30_LONG TOKYO_R30_SHORT TOKYO_LAND CMA_LAT CMA_LON CMA_CAT CMA_WIND CMA_PRES HKO_LAT HKO_LON HKO_CAT HKO_WIND HKO_PRES NEWDELHI_LAT NEWDELHI_LON NEWDELHI_GRADE NEWDELHI_WIND NEWDELHI_PRES NEWDELHI_CI NEWDELHI_DP NEWDELHI_POCI REUNION_LAT REUNION_LON REUNION_TYPE REUNION_WIND REUNION_PRES REUNION_TNUM REUNION_CI REUNION_RMW REUNION_R34_NE REUNION_R34_SE REUNION_R34_SW REUNION_R34_NW REUNION_R50_NE REUNION_R50_SE REUNION_R50_SW REUNION_R50_NW REUNION_R64_NE REUNION_R64_SE REUNION_R64_SW REUNION_R64_NW BOM_LAT BOM_LON BOM_TYPE BOM_WIND BOM_PRES BOM_TNUM BOM_CI BOM_RMW BOM_R34_NE BOM_R34_SE BOM_R34_SW BOM_R34_NW BOM_R50_NE BOM_R50_SE BOM_R50_SW BOM_R50_NW BOM_R64_NE BOM_R64_SE BOM_R64_SW BOM_R64_NW BOM_ROCI BOM_POCI BOM_EYE BOM_POS_METHOD BOM_PRES_METHOD NADI_LAT NADI_LON NADI_CAT NADI_WIND NADI_PRES WELLINGTON_LAT WELLINGTON_LON WELLINGTON_WIND WELLINGTON_PRES DS824_LAT DS824_LON DS824_STAGE DS824_WIND DS824_PRES TD9636_LAT TD9636_LON TD9636_STAGE TD9636_WIND TD9636_PRES TD9635_LAT TD9635_LON TD9635_WIND TD9635_PRES TD9635_ROCI NEUMANN_LAT NEUMANN_LON NEUMANN_CLASS NEUMANN_WIND NEUMANN_PRES MLC_LAT MLC_LON MLC_CLASS MLC_WIND MLC_PRES USA_GUST BOM_GUST BOM_GUST_PER REUNION_GUST REUNION_GUST_PER USA_SEAHGT USA_SEARAD_NE USA_SEARAD_SE USA_SEARAD_SW USA_SEARAD_NW STORM_SPEED STORM_DIR
1909309N09129 1909 63 WP MM NOT_NAMED 1909-11-04 16:00:00 NR 8.80000 128.800 main 270 251 __________O___ -1 8.80000 128.800 7 9 304
1909309N09129 1909 63 WP MM NOT_NAMED 1909-11-04 18:00:00 NR 8.95991 128.556 main 253 213 __________P___ -1 8.95991 128.556 7 9 303
1909309N09129 1909 63 WP MM NOT_NAMED 1909-11-04 21:00:00 NR 9.19592 128.187 main 213 177 __________P___ -1 9.19592 128.187 7 9 302
1909309N09129 1909 63 WP MM NOT_NAMED 1909-11-05 00:00:00 NR 9.42240 127.813 main 177 139 __________P___ -1 9.42240 127.813 7 9 300
1909309N09129 1909 63 WP MM NOT_NAMED 1909-11-05 03:00:00 NR 9.63382 127.430 main 139 133 __________P___ -1 9.63382 127.430 7 9 299
1909309N09129 1909 63 WP MM NOT_NAMED 1909-11-05 04:00:00 NR 9.70000 127.300 main 133 110 __________O___ -1 9.70000 127.300 7 9 296
1909309N09129 1909 63 WP MM NOT_NAMED 1909-11-05 06:00:00 NR 9.82541 127.036 main 110 86 __________P___ -1 9.82541 127.036 7 9 295
1909309N09129 1909 63 WP MM NOT_NAMED 1909-11-05 09:00:00 NR 10.0009 126.634 main 86 74 __________P___ -1 10.0009 126.634 7 9 293
1909309N09129 1909 63 WP MM NOT_NAMED 1909-11-05 12:00:00 NR 10.1695 126.231 main 81 54 __________P___ -1 10.1695 126.231 7 9 293
1909309N09129 1909 63 WP MM NOT_NAMED 1909-11-05 15:00:00 NR 10.3407 125.831 main 54 45 __________P___ -1 10.3407 125.831 7 9 294
1909309N09129 1909 63 WP MM NOT_NAMED 1909-11-05 16:00:00 NR 10.4000 125.700 main 45 31 __________O___ -1 10.4000 125.700 7 8 296
1909309N09129 1909 63 WP MM NOT_NAMED 1909-11-05 18:00:00 NR 10.5221 125.460 main 31 0 __________P___ -1 10.5221 125.460 7 8 298
1909309N09129 1909 63 WP MM NOT_NAMED 1909-11-05 21:00:00 NR 10.7116 125.106 main 10 0 __________P___ -1 10.7116 125.106 7 8 299
1909309N09129 1909 63 WP MM NOT_NAMED 1909-11-06 00:00:00 NR 10.9115 124.741 main 0 0 __________P___ -1 10.9115 124.741 7 9 299
1909309N09129 1909 63 WP MM NOT_NAMED 1909-11-06 03:00:00 NR 11.1252 124.344 main 10 10 __________P___ -1 11.1252 124.344 7 9 299
1909309N09129 1909 63 WP MM NOT_NAMED 1909-11-06 04:00:00 NR 11.2000 124.200 main 21 10 __________O___ -1 11.2000 124.200 4 10 298
1909309N09129 1909 63 WP MM NOT_NAMED 1909-11-06 06:00:00 NR 11.3578 123.889 main 22 22 __________P___ -1 11.3578 123.889 4 11 297
1909309N09129 1909 63 WP MM NOT_NAMED 1909-11-06 09:00:00 NR 11.6073 123.386 main 34 22 __________P___ -1 11.6073 123.386 4 11 296
1909309N09129 1909 63 WP MM NOT_NAMED 1909-11-06 12:00:00 NR 11.8636 122.848 main 44 31 __________P___ -1 11.8636 122.848 4 12 295
1909309N09129 1909 63 WP MM NOT_NAMED 1909-11-06 15:00:00 NR 12.1175 122.289 main 35 33 __________P___ -1 12.1175 122.289 4 12 295
1909309N09129 1909 63 WP MM NOT_NAMED 1909-11-06 16:00:00 NR 12.2000 122.100 main 44 24 __________O___ -1 12.2000 122.100 4 12 293
1909309N09129 1909 63 WP MM NOT_NAMED 1909-11-06 18:00:00 NR 12.3637 121.705 main 24 0 __________P___ -1 12.3637 121.705 4 13 292
1909309N09129 1909 63 WP MM NOT_NAMED 1909-11-06 21:00:00 NR 12.6032 121.098 main 0 0 __________P___ -1 12.6032 121.098 4 13 292
1909309N09129 1909 63 WP MM NOT_NAMED 1909-11-07 00:00:00 NR 12.8295 120.507 main 32 32 __________P___ -1 12.8295 120.507 4 12 291
1909309N09129 1909 63 WP MM NOT_NAMED 1909-11-07 03:00:00 NR 13.0364 119.964 main 55 54 __________P___ -1 13.0364 119.964 4 11 291
1909309N09129 1909 63 WP MM NOT_NAMED 1909-11-07 04:00:00 NR 13.1000 119.800 main 63 63 __________O___ -1 13.1000 119.800 4 9 293
1909309N09129 1909 63 WP MM NOT_NAMED 1909-11-07 06:00:00 NR 13.2111 119.536 main 89 89 __________P___ -1 13.2111 119.536 4 8 294
1909309N09129 1909 63 WP MM NOT_NAMED 1909-11-07 09:00:00 NR 13.3592 119.197 main 119 119 __________P___ -1 13.3592 119.197 4 7 294
1909309N09129 1909 63 WP MM NOT_NAMED 1909-11-07 12:00:00 NR 13.4992 118.880 main 151 151 __________P___ -1 13.4992 118.880 4 7 294
1909309N09129 1909 63 WP MM NOT_NAMED 1909-11-07 15:00:00 NR 13.6466 118.532 main 196 197 __________P___ -1 13.6466 118.532 4 8 293
1909309N09129 1909 63 WP MM NOT_NAMED 1909-11-07 16:00:00 NR 13.7000 118.400 main 208 208 __________O___ -1 13.7000 118.400 4 9 293
1909309N09129 1909 63 WP MM NOT_NAMED 1909-11-07 18:00:00 NR 13.8271 118.090 main 242 242 __________P___ -1 13.8271 118.090 4 10 292
1909309N09129 1909 63 WP MM NOT_NAMED 1909-11-07 21:00:00 NR 14.0304 117.574 main 283 290 __________P___ -1 14.0304 117.574 4 11 291
1909309N09129 1909 63 WP MM NOT_NAMED 1909-11-08 00:00:00 NR 14.2380 117.008 main 339 339 __________P___ -1 14.2380 117.008 4 12 290
1909309N09129 1909 63 WP MM NOT_NAMED 1909-11-08 03:00:00 NR 14.4374 116.407 main 392 392 __________P___ -1 14.4374 116.407 4 12 288
1909309N09129 1909 63 WP MM NOT_NAMED 1909-11-08 04:00:00 NR 14.5000 116.200 main 410 410 __________O___ -1 14.5000 116.200 4 12 287
1909309N09129 1909 63 WP MM NOT_NAMED 1909-11-08 06:00:00 NR 14.6138 115.795 main 446 446 __________P___ -1 14.6138 115.795 4 13 285
1909309N09129 1909 63 WP MM NOT_NAMED 1909-11-08 09:00:00 NR 14.7721 115.161 main 500 511 __________P___ -1 14.7721 115.161 4 13 284
1909309N09129 1909 63 WP MM NOT_NAMED 1909-11-08 12:00:00 NR 14.9183 114.504 main 570 502 __________P___ -1 14.9183 114.504 4 13 282
1909309N09129 1909 63 WP MM NOT_NAMED 1909-11-08 15:00:00 NR 15.0556 113.828 main 502 482 __________P___ -1 15.0556 113.828 4 13 282
1909309N09129 1909 63 WP MM NOT_NAMED 1909-11-08 16:00:00 NR 15.1000 113.600 main 482 433 __________O___ -1 15.1000 113.600 4 14 282
1909309N09129 1909 63 WP MM NOT_NAMED 1909-11-08 18:00:00 NR 15.1970 113.124 main 433 360 __________P___ -1 15.1970 113.124 4 14 282
1909309N09129 1909 63 WP MM NOT_NAMED 1909-11-08 21:00:00 NR 15.3365 112.397 main 360 293 __________P___ -1 15.3365 112.397 4 14 281
1909309N09129 1909 63 WP MM NOT_NAMED 1909-11-09 00:00:00 NR 15.4628 111.681 main 293 227 __________P___ -1 15.4628 111.681 4 14 280
1909309N09129 1909 63 WP MM NOT_NAMED 1909-11-09 03:00:00 NR 15.5697 111.009 main 227 208 __________P___ -1 15.5697 111.009 4 13 279
1909309N09129 1909 63 WP MM NOT_NAMED 1909-11-09 04:00:00 NR 15.6000 110.800 main 208 170 __________O___ -1 15.6000 110.800 4 11 279
1909309N09129 1909 63 WP MM NOT_NAMED 1909-11-09 06:00:00 NR 15.6549 110.421 main 170 120 __________P___ -1 15.6549 110.421 4 10 278
1909309N09129 1909 63 WP MM NOT_NAMED 1909-11-09 09:00:00 NR 15.7191 109.903 main 120 85 __________P___ -1 15.7191 109.903 4 10 276
1909309N09129 1909 63 WP MM NOT_NAMED 1909-11-09 12:00:00 NR 15.7643 109.423 main 85 54 __________P___ -1 15.7643 109.423 4 9 275
1909309N09129 1909 63 WP MM NOT_NAMED 1909-11-09 15:00:00 NR 15.7934 108.957 main 54 39 __________P___ -1 15.7934 108.957 4 9 273
1909309N09129 1909 63 WP MM NOT_NAMED 1909-11-09 16:00:00 NR 15.8000 108.800 main 39 10 __________O___ -1 15.8000 108.800 4 9 272
1909309N09129 1909 63 WP MM NOT_NAMED 1909-11-09 18:00:00 NR 15.8091 108.480 main 10 0 __________P___ -1 15.8091 108.480 4 9 271
1909309N09129 1909 63 WP MM NOT_NAMED 1909-11-09 21:00:00 NR 15.8141 107.987 main 0 0 __________P___ -1 15.8141 107.987 4 10 270
1909309N09129 1909 63 WP MM NOT_NAMED 1909-11-10 00:00:00 NR 15.8112 107.482 main 0 0 __________P___ -1 15.8112 107.482 4 10 269
1909309N09129 1909 63 WP MM NOT_NAMED 1909-11-10 03:00:00 NR 15.8033 106.971 main 0 0 __________P___ -1 15.8033 106.971 4 10 269
1909309N09129 1909 63 WP MM NOT_NAMED 1909-11-10 04:00:00 NR 15.8000 106.800 main 0 __________O___ -1 15.8000 106.800 7 10 269

Digital Typhoon Data and Search

About IBTrACS Database

This database is a web-friendly format of International Best Track Archive for Climate Stewardship (IBTrACS), a global best track data archive curated by NOAA dating back to 1842.

Updated: 2021-12-06